Time;durP1;ratioP1;P1;durP2;ratioP2;P2;SDS_P1;SDS_P2;PMS_P1;PMS_P2;Temp;Humidity;BMP_temperature;BMP_pressure;BME280_temperature;BME280_humidity;BME280_pressure;Samples;Min_cycle;Max_cycle;Signal;HPM_P1;HPM_P2
2023/09/06 00:00:43;;;;;;;8.83;5.50;;;;;;;17.10;nan;101087.09;5006373;28;20113;-68
2023/09/06 00:03:10;;;;;;;8.65;5.65;;;;;;;17.10;nan;101099.59;5005316;28;20032;-67
2023/09/06 00:05:36;;;;;;;8.20;6.03;;;;;;;17.10;nan;101111.03;5005997;28;20036;-69
2023/09/06 00:08:02;;;;;;;8.70;5.75;;;;;;;17.10;nan;101116.34;5001665;28;20050;-66
2023/09/06 00:10:28;;;;;;;11.05;5.97;;;;;;;17.11;nan;101109.16;5006904;28;20033;-69
2023/09/06 00:12:53;;;;;;;8.00;5.80;;;;;;;16.84;nan;101071.91;5004975;28;20057;-70
2023/09/06 00:15:19;;;;;;;8.13;5.85;;;;;;;17.04;nan;101112.03;5006502;28;20026;-70
2023/09/06 00:17:44;;;;;;;7.07;5.57;;;;;;;16.82;nan;101072.16;5003735;28;20029;-70
2023/09/06 00:20:23;;;;;;;10.10;5.97;;;;;;;16.93;nan;101091.69;5005329;28;20503;-68
2023/09/06 00:22:56;;;;;;;8.57;6.20;;;;;;;16.93;nan;101100.47;5006458;28;20436;-68
2023/09/06 00:25:22;;;;;;;7.75;5.90;;;;;;;16.82;nan;101093.44;5005060;28;20427;-68
2023/09/06 00:27:50;;;;;;;9.18;6.43;;;;;;;16.77;nan;101101.34;5003779;28;20026;-69
2023/09/06 00:30:16;;;;;;;8.25;6.13;;;;;;;16.65;nan;101082.03;5003910;28;20034;-69
2023/09/06 00:32:41;;;;;;;10.75;6.45;;;;;;;16.70;nan;101085.56;5008466;28;20579;-69
2023/09/06 00:35:07;;;;;;;10.55;6.30;;;;;;;16.75;nan;101095.44;5008849;28;20432;-69
2023/09/06 00:37:42;;;;;;;9.13;6.28;;;;;;;16.65;nan;101098.00;5010677;28;20064;-69
2023/09/06 00:40:13;;;;;;;9.70;6.75;;;;;;;16.56;nan;101090.44;5006130;28;20033;-69
2023/09/06 00:42:39;;;;;;;8.82;6.43;;;;;;;16.60;nan;101106.72;5010327;28;20029;-69
2023/09/06 00:45:05;;;;;;;9.20;6.35;;;;;;;16.46;nan;101095.63;5010131;28;20034;-69
2023/09/06 00:47:30;;;;;;;9.00;6.40;;;;;;;16.50;nan;101109.25;5009218;28;20025;-65
2023/09/06 00:49:56;;;;;;;7.72;6.30;;;;;;;16.33;nan;101091.50;5007209;28;20030;-65
2023/09/06 00:52:21;;;;;;;10.43;6.95;;;;;;;16.46;nan;101108.94;5010673;28;20044;-68
2023/09/06 00:54:48;;;;;;;10.05;7.10;;;;;;;16.46;nan;101113.44;5009257;28;20072;-68
2023/09/06 00:57:13;;;;;;;11.38;7.25;;;;;;;16.42;nan;101107.00;5008082;28;20743;-66
2023/09/06 00:59:40;;;;;;;9.45;6.55;;;;;;;16.36;nan;101098.19;5008896;28;20022;-69
2023/09/06 01:02:05;;;;;;;8.52;7.10;;;;;;;16.36;nan;101101.63;5008997;28;20084;-70
2023/09/06 01:04:31;;;;;;;9.35;6.57;;;;;;;16.35;nan;101115.16;5007455;28;20025;-70
2023/09/06 01:06:59;;;;;;;9.27;7.00;;;;;;;16.31;nan;101109.53;5010345;28;20032;-69
2023/09/06 01:09:24;;;;;;;9.95;6.72;;;;;;;16.28;nan;101101.25;5007464;28;20492;-70
2023/09/06 01:11:50;;;;;;;8.80;6.90;;;;;;;16.23;nan;101101.97;5006348;28;20049;-69
2023/09/06 01:14:15;;;;;;;10.90;6.90;;;;;;;16.03;nan;101080.47;5007272;28;21100;-69
2023/09/06 01:16:48;;;;;;;9.07;6.47;;;;;;;16.16;nan;101102.19;5007581;28;20120;-68
2023/09/06 01:19:15;;;;;;;8.52;6.70;;;;;;;16.02;nan;101090.28;5009064;28;20064;-69
2023/09/06 01:21:49;;;;;;;9.88;7.07;;;;;;;16.09;nan;101106.03;5008801;28;20518;-69
2023/09/06 01:24:16;;;;;;;11.43;7.43;;;;;;;16.01;nan;101098.50;5008292;28;20084;-68
2023/09/06 01:26:42;;;;;;;12.32;7.72;;;;;;;15.91;nan;101097.28;5009609;28;20046;-69
2023/09/06 01:29:08;;;;;;;9.93;7.40;;;;;;;15.86;nan;101094.56;5006191;28;20068;-68
2023/09/06 01:31:33;;;;;;;11.95;7.47;;;;;;;15.73;nan;101085.06;5007225;28;20112;-68
2023/09/06 01:33:59;;;;;;;13.07;8.00;;;;;;;15.75;nan;101092.78;5009589;28;20429;-65
2023/09/06 01:36:25;;;;;;;10.52;7.82;;;;;;;15.65;nan;101095.25;5007178;28;20139;-68
2023/09/06 01:38:53;;;;;;;10.60;8.32;;;;;;;15.68;nan;101110.69;5007137;28;20649;-68
2023/09/06 01:41:19;;;;;;;14.57;7.88;;;;;;;15.64;nan;101101.63;5008690;28;20036;-68
2023/09/06 01:43:44;;;;;;;10.50;7.97;;;;;;;15.62;nan;101101.84;5006762;28;20029;-65
2023/09/06 01:46:09;;;;;;;12.38;7.60;;;;;;;15.56;nan;101102.81;5008568;28;20026;-68
2023/09/06 01:48:36;;;;;;;14.02;8.27;;;;;;;15.52;nan;101101.69;5008437;28;20124;-68
2023/09/06 01:51:04;;;;;;;10.27;8.10;;;;;;;15.52;nan;101105.16;5007833;28;20034;-69
2023/09/06 01:53:29;;;;;;;10.40;7.75;;;;;;;15.49;nan;101113.59;5008233;28;20427;-69
2023/09/06 01:55:54;;;;;;;12.00;7.80;;;;;;;15.47;nan;101104.28;5008577;28;20037;-69
2023/09/06 01:58:20;;;;;;;10.95;7.93;;;;;;;15.32;nan;101084.41;5008922;28;20072;-69
2023/09/06 02:00:46;;;;;;;11.65;8.43;;;;;;;15.39;nan;101100.13;5010047;28;20021;-69
2023/09/06 02:03:14;;;;;;;11.88;8.13;;;;;;;15.36;nan;101097.16;5009135;28;20030;-69
2023/09/06 02:05:43;;;;;;;11.52;8.80;;;;;;;15.29;nan;101098.13;5008500;28;20034;-69
2023/09/06 02:08:09;;;;;;;9.40;7.78;;;;;;;15.31;nan;101092.59;5005829;28;20054;-68
2023/09/06 02:10:34;;;;;;;11.27;8.13;;;;;;;15.32;nan;101097.66;5008392;28;20068;-69
2023/09/06 02:12:59;;;;;;;10.95;7.45;;;;;;;15.29;nan;101098.13;5008227;28;20041;-69
2023/09/06 02:15:25;;;;;;;11.80;8.00;;;;;;;15.16;nan;101079.84;5007322;28;20133;-69
2023/09/06 02:17:51;;;;;;;9.55;7.93;;;;;;;15.35;nan;101103.50;4991458;28;20671;-69
2023/09/06 02:20:20;;;;;;;14.77;8.30;;;;;;;15.34;nan;101109.88;5008488;28;20042;-68
2023/09/06 02:22:51;;;;;;;9.95;7.85;;;;;;;15.34;nan;101105.38;5008925;28;20109;-69
2023/09/06 02:25:21;;;;;;;11.25;8.18;;;;;;;15.37;nan;101106.72;5009133;28;20030;-69
2023/09/06 02:27:47;;;;;;;15.18;8.15;;;;;;;15.37;nan;101104.91;5007587;28;20072;-69
2023/09/06 02:30:13;;;;;;;11.70;7.65;;;;;;;15.41;nan;101107.88;5023411;28;20420;-70
2023/09/06 02:32:38;;;;;;;14.77;8.13;;;;;;;15.38;nan;101116.31;5007088;28;20092;-69
2023/09/06 02:35:06;;;;;;;17.13;9.10;;;;;;;15.34;nan;101107.22;5007798;28;20026;-69
2023/09/06 02:37:32;;;;;;;11.57;7.85;;;;;;;15.32;nan;101115.41;5007230;28;20037;-66
2023/09/06 02:39:58;;;;;;;12.95;8.70;;;;;;;15.27;nan;101110.81;5008550;28;20018;-69
2023/09/06 02:42:23;;;;;;;11.30;8.38;;;;;;;15.27;nan;101110.00;5006946;28;21343;-69
2023/09/06 02:44:49;;;;;;;11.23;8.32;;;;;;;15.15;nan;101090.69;5009254;28;20058;-70
2023/09/06 02:47:15;;;;;;;9.77;8.05;;;;;;;15.13;nan;101090.13;5007063;28;20026;-69
2023/09/06 02:49:47;;;;;;;10.73;8.10;;;;;;;15.22;nan;101102.75;5007489;28;20029;-69
2023/09/06 02:52:28;;;;;;;14.73;8.30;;;;;;;15.24;nan;101095.38;5007795;28;20612;-69
2023/09/06 02:55:03;;;;;;;13.10;8.05;;;;;;;15.20;nan;101096.88;5005787;28;20791;-70
2023/09/06 02:57:30;;;;;;;11.77;8.15;;;;;;;15.10;nan;101086.09;5006275;28;20029;-69
2023/09/06 02:59:55;;;;;;;10.95;8.27;;;;;;;15.09;nan;101095.91;5006505;28;20034;-69
2023/09/06 03:02:24;;;;;;;15.63;7.88;;;;;;;15.15;nan;101114.56;5003496;28;20103;-69
2023/09/06 03:05:03;;;;;;;11.70;8.93;;;;;;;15.15;nan;101111.91;5005845;28;20036;-68
2023/09/06 03:07:31;;;;;;;12.30;8.70;;;;;;;15.10;nan;101105.47;5006055;28;20297;-68
2023/09/06 03:09:56;;;;;;;10.80;8.10;;;;;;;15.08;nan;101110.22;5005222;28;20030;-68
2023/09/06 03:12:22;;;;;;;11.00;8.05;;;;;;;15.04;nan;101092.38;5008814;28;20050;-68
2023/09/06 03:14:48;;;;;;;14.80;8.38;;;;;;;15.13;nan;101117.44;5006398;28;20100;-68
2023/09/06 03:17:18;;;;;;;11.93;8.48;;;;;;;15.12;nan;101115.06;5008192;28;20044;-68
2023/09/06 03:19:46;;;;;;;10.10;8.25;;;;;;;15.10;nan;101113.44;5005521;28;20037;-69
2023/09/06 03:22:12;;;;;;;10.63;8.13;;;;;;;15.07;nan;101124.53;5006849;28;20177;-69
2023/09/06 03:24:43;;;;;;;13.13;8.32;;;;;;;15.15;nan;101133.16;5006601;28;20459;-69
2023/09/06 03:27:15;;;;;;;12.27;8.07;;;;;;;15.16;nan;101142.72;5006481;28;20029;-69
2023/09/06 03:29:40;;;;;;;12.45;8.30;;;;;;;15.15;nan;101139.25;5006482;28;20033;-68
2023/09/06 03:32:09;;;;;;;10.93;7.95;;;;;;;15.08;nan;101128.81;5007793;28;20030;-69
2023/09/06 03:34:36;;;;;;;10.43;8.05;;;;;;;15.13;nan;101143.19;5006789;28;20028;-68
2023/09/06 03:37:05;;;;;;;12.90;9.00;;;;;;;15.09;nan;101142.88;5007436;28;20026;-68
2023/09/06 03:39:37;;;;;;;13.63;8.15;;;;;;;15.07;nan;101142.28;5006908;28;20037;-69
2023/09/06 03:42:08;;;;;;;11.90;8.18;;;;;;;15.07;nan;101134.34;5007927;28;20045;-67
2023/09/06 03:44:37;;;;;;;15.65;8.25;;;;;;;15.02;nan;101134.25;5005616;28;20396;-69
2023/09/06 03:47:13;;;;;;;14.15;8.85;;;;;;;14.98;nan;101136.53;5006571;28;20120;-69
2023/09/06 03:49:39;;;;;;;12.90;8.85;;;;;;;14.98;nan;101141.84;5004681;28;20626;-69
2023/09/06 03:52:05;;;;;;;13.68;8.32;;;;;;;14.95;nan;101150.28;5003366;28;20045;-69
2023/09/06 03:54:34;;;;;;;12.73;8.50;;;;;;;14.93;nan;101133.00;5004483;28;20080;-69
2023/09/06 03:57:12;;;;;;;17.85;8.77;;;;;;;14.92;nan;101149.94;5004227;28;20503;-65
2023/09/06 03:59:40;;;;;;;14.07;8.10;;;;;;;14.89;nan;101151.22;5006092;28;20072;-68
2023/09/06 04:02:08;;;;;;;13.68;8.73;;;;;;;14.88;nan;101136.34;5004882;28;20036;-69
2023/09/06 04:04:34;;;;;;;13.10;8.45;;;;;;;14.86;nan;101136.56;5004689;28;20026;-70
2023/09/06 04:07:00;;;;;;;15.73;8.52;;;;;;;14.98;nan;101149.00;5009858;28;20029;-69
2023/09/06 04:09:30;;;;;;;13.18;8.40;;;;;;;14.96;nan;101154.53;5007588;28;20087;-68
2023/09/06 04:11:59;;;;;;;11.80;8.27;;;;;;;15.05;nan;101166.38;5009339;28;20487;-69
2023/09/06 04:14:25;;;;;;;;;;;;;;;15.06;nan;101164.53;5009984;28;20389;-69
2023/09/06 04:16:50;;;;;;;14.07;8.20;;;;;;;15.01;nan;101165.28;5010447;28;19921;-69
2023/09/06 04:19:15;;;;;;;11.88;7.88;;;;;;;14.98;nan;101156.97;5009782;28;20490;-69
2023/09/06 04:21:41;;;;;;;15.75;8.30;;;;;;;15.06;nan;101170.66;5011175;28;20033;-69
2023/09/06 04:24:07;;;;;;;15.73;8.65;;;;;;;15.06;nan;101168.03;5010478;28;20049;-69
2023/09/06 04:26:33;;;;;;;14.32;8.80;;;;;;;15.11;nan;101169.97;5011419;28;20029;-69
2023/09/06 04:28:58;;;;;;;16.25;9.00;;;;;;;15.09;nan;101178.16;5011179;28;20396;-68
2023/09/06 04:31:24;;;;;;;10.85;7.70;;;;;;;15.03;nan;101170.31;5008998;28;20030;-67
2023/09/06 04:33:49;;;;;;;11.68;7.43;;;;;;;14.86;nan;101143.72;5007480;28;20605;-69
2023/09/06 04:36:15;;;;;;;10.35;7.47;;;;;;;15.11;nan;101183.22;5005311;28;20029;-69
2023/09/06 04:38:40;;;;;;;10.90;7.93;;;;;;;15.12;nan;101176.06;5008097;28;20400;-69
2023/09/06 04:41:05;;;;;;;11.80;7.43;;;;;;;15.16;nan;101185.19;5009650;28;20112;-69
2023/09/06 04:43:31;;;;;;;11.02;7.82;;;;;;;15.16;nan;101178.03;5007156;28;20495;-70
2023/09/06 04:45:58;;;;;;;11.60;8.00;;;;;;;15.15;nan;101170.28;5010119;28;20080;-69
2023/09/06 04:48:23;;;;;;;10.80;7.88;;;;;;;15.28;nan;101180.63;5009203;28;20037;-70
2023/09/06 04:50:49;;;;;;;12.70;7.55;;;;;;;15.32;nan;101187.06;5007695;28;20022;-69
2023/09/06 04:53:18;;;;;;;19.05;12.15;;;;;;;15.31;nan;101180.94;5039903;28;20056;-70
2023/09/06 04:55:44;;;;;;;12.20;8.83;;;;;;;15.40;nan;101189.34;5008548;28;20033;-70
2023/09/06 04:58:11;;;;;;;14.13;8.30;;;;;;;15.50;nan;101196.69;5008413;28;20333;-70
2023/09/06 05:00:39;;;;;;;10.35;7.72;;;;;;;15.50;nan;101192.19;5001223;28;20022;-71
2023/09/06 05:03:10;;;;;;;11.48;7.75;;;;;;;15.63;nan;101204.34;5007593;28;20088;-70
2023/09/06 05:05:40;;;;;;;18.15;7.90;;;;;;;15.66;nan;101193.25;5008509;28;20109;-71
2023/09/06 05:08:06;;;;;;;19.77;8.40;;;;;;;15.78;nan;101205.69;5009744;28;20041;-65
2023/09/06 05:10:35;;;;;;;13.65;8.05;;;;;;;15.84;nan;101202.09;5004287;28;20571;-68
2023/09/06 05:13:01;;;;;;;11.32;7.15;;;;;;;15.89;nan;101202.97;5008274;28;20050;-68
2023/09/06 05:15:26;;;;;;;9.40;7.45;;;;;;;15.92;nan;101196.34;5008663;28;20053;-70
2023/09/06 05:17:53;;;;;;;10.00;7.93;;;;;;;16.00;nan;101198.63;5011049;28;20033;-70
2023/09/06 05:20:33;;;;;;;12.73;8.25;;;;;;;16.15;nan;101216.66;5007665;28;20041;-70
2023/09/06 05:23:04;;;;;;;10.43;7.13;;;;;;;16.20;nan;101218.59;5009125;28;20037;-70
2023/09/06 05:25:30;;;;;;;11.20;6.82;;;;;;;16.17;nan;101198.63;5008495;28;20121;-70
2023/09/06 05:28:01;;;;;;;10.75;7.40;;;;;;;16.28;nan;101219.00;5010059;28;20387;-68
2023/09/06 05:30:27;;;;;;;14.30;7.88;;;;;;;16.42;nan;101223.97;5005280;28;20503;-70
2023/09/06 05:32:55;;;;;;;9.32;7.13;;;;;;;16.45;nan;101210.19;5006011;28;20041;-69
2023/09/06 05:35:21;;;;;;;15.18;7.55;;;;;;;16.49;nan;101206.00;5007628;28;20109;-68
2023/09/06 05:37:47;;;;;;;12.60;6.60;;;;;;;16.59;nan;101212.28;5007191;28;20120;-70
2023/09/06 05:40:12;;;;;;;12.10;6.55;;;;;;;16.58;nan;101202.69;5009379;28;20439;-69
2023/09/06 05:42:41;;;;;;;11.38;6.45;;;;;;;16.72;nan;101210.31;5007467;28;20022;-69
2023/09/06 05:45:11;;;;;;;;;;;;;;;16.85;nan;101220.63;5008000;28;20026;-71
2023/09/06 05:47:38;;;;;;;11.57;6.00;;;;;;;16.84;nan;101212.91;5008883;28;20000;-73
2023/09/06 05:50:04;;;;;;;10.57;6.90;;;;;;;16.96;nan;101224.22;5006577;28;20057;-69
2023/09/06 05:52:30;;;;;;;10.75;7.03;;;;;;;17.03;nan;101224.84;5008604;28;20499;-69
2023/09/06 05:54:55;;;;;;;13.60;7.25;;;;;;;17.14;nan;101236.41;5007646;28;20041;-66
2023/09/06 05:57:21;;;;;;;12.40;6.40;;;;;;;17.17;nan;101228.75;5006323;28;20026;-70
2023/09/06 05:59:46;;;;;;;12.75;6.57;;;;;;;17.27;nan;101229.91;5007513;28;20518;-70
2023/09/06 06:02:12;;;;;;;9.25;6.60;;;;;;;17.37;nan;101227.34;5008145;28;20034;-69
2023/09/06 06:04:37;;;;;;;8.32;6.05;;;;;;;17.48;nan;101226.41;5007775;28;20116;-72
2023/09/06 06:07:03;;;;;;;16.05;6.88;;;;;;;17.38;nan;101202.34;5007545;28;20026;-72
2023/09/06 06:09:28;;;;;;;10.10;6.32;;;;;;;17.57;nan;101219.56;5007960;28;20030;-69
2023/09/06 06:11:53;;;;;;;8.70;6.43;;;;;;;17.65;nan;101224.47;5003831;28;20121;-69
2023/09/06 06:14:19;;;;;;;14.38;6.85;;;;;;;17.82;nan;101239.56;5004117;28;20037;-69
2023/09/06 06:16:45;;;;;;;14.52;6.70;;;;;;;18.04;nan;101248.28;5008185;28;20494;-68
2023/09/06 06:19:11;;;;;;;10.18;6.38;;;;;;;18.05;nan;101225.09;5008294;28;20920;-75
2023/09/06 06:21:37;;;;;;;10.45;6.38;;;;;;;18.26;nan;101244.72;5007647;28;20029;-74
2023/09/06 06:24:04;;;;;;;9.05;5.88;;;;;;;18.33;nan;101247.16;5005172;28;20377;-70
2023/09/06 06:26:29;;;;;;;12.73;6.93;;;;;;;18.40;nan;101245.09;5006081;28;20168;-70
2023/09/06 06:28:54;;;;;;;12.05;6.55;;;;;;;18.41;nan;101239.50;5007682;28;20051;-74
2023/09/06 06:31:19;;;;;;;10.57;6.33;;;;;;;18.46;nan;101236.88;5005751;28;20022;-69
2023/09/06 06:33:45;;;;;;;12.25;6.80;;;;;;;18.62;nan;101250.28;5004622;28;20298;-69
2023/09/06 06:36:11;;;;;;;8.13;5.82;;;;;;;18.67;nan;101240.44;5006248;28;20029;-69
2023/09/06 06:38:36;;;;;;;8.23;5.80;;;;;;;18.74;nan;101237.56;5007551;28;20030;-68
2023/09/06 06:41:02;;;;;;;7.80;5.63;;;;;;;18.94;nan;101254.75;5004978;28;20022;-69
2023/09/06 06:43:27;;;;;;;10.55;6.15;;;;;;;18.92;nan;101252.38;5008117;28;20048;-68
2023/09/06 06:45:54;;;;;;;6.45;5.38;;;;;;;19.06;nan;101255.38;5006291;28;20037;-69
2023/09/06 06:48:21;;;;;;;8.13;5.85;;;;;;;19.19;nan;101262.88;5008523;28;20037;-69
2023/09/06 06:50:46;;;;;;;8.15;5.38;;;;;;;19.18;nan;101255.94;5008785;28;20018;-69
2023/09/06 06:53:11;;;;;;;7.10;5.07;;;;;;;19.23;nan;101269.31;5007642;28;20045;-69
2023/09/06 06:55:37;;;;;;;6.78;4.90;;;;;;;19.37;nan;101277.66;5005584;28;20101;-70
2023/09/06 06:58:03;;;;;;;6.47;5.28;;;;;;;19.41;nan;101272.56;5006834;28;20033;-69
2023/09/06 07:00:32;;;;;;;6.57;4.63;;;;;;;19.55;nan;101277.16;5005369;28;20419;-69
2023/09/06 07:02:58;;;;;;;6.97;4.50;;;;;;;19.65;nan;101273.69;5003620;28;20038;-69
2023/09/06 07:05:23;;;;;;;9.95;4.82;;;;;;;19.63;nan;101257.13;5006703;28;20655;-69
2023/09/06 07:07:49;;;;;;;8.93;5.00;;;;;;;19.83;nan;101269.75;5004811;28;20070;-69
2023/09/06 07:10:15;;;;;;;7.82;5.18;;;;;;;19.88;nan;101263.63;5005121;28;20018;-70
2023/09/06 07:12:41;;;;;;;9.35;4.80;;;;;;;20.05;nan;101279.41;5006769;28;20034;-69
2023/09/06 07:15:06;;;;;;;9.85;5.00;;;;;;;20.02;nan;101266.59;5006279;28;20030;-69
2023/09/06 07:17:32;;;;;;;6.40;4.82;;;;;;;20.08;nan;101271.63;5006674;28;20034;-69
2023/09/06 07:19:58;;;;;;;9.63;4.80;;;;;;;20.24;nan;101272.44;5002286;28;20042;-69
2023/09/06 07:22:24;;;;;;;6.93;4.90;;;;;;;20.24;nan;101266.31;5006273;28;20576;-69
2023/09/06 07:24:50;;;;;;;9.00;4.35;;;;;;;20.29;nan;101272.44;5005932;28;20386;-70
2023/09/06 07:27:15;;;;;;;9.60;5.28;;;;;;;20.39;nan;101274.31;5006325;28;20026;-69
2023/09/06 07:29:40;;;;;;;7.57;5.18;;;;;;;20.41;nan;101280.19;5004447;28;20038;-69
2023/09/06 07:32:06;;;;;;;6.82;4.60;;;;;;;20.45;nan;101272.41;5003361;28;20033;-69
2023/09/06 07:34:32;;;;;;;9.27;5.25;;;;;;;20.53;nan;101261.97;5005297;28;20366;-68
2023/09/06 07:36:57;;;;;;;6.90;4.53;;;;;;;20.66;nan;101271.34;5003934;28;21391;-68
2023/09/06 07:39:23;;;;;;;10.25;4.82;;;;;;;20.70;nan;101274.28;5006371;28;20022;-70
2023/09/06 07:41:50;;;;;;;6.07;4.45;;;;;;;20.81;nan;101274.00;5003567;28;20026;-69
2023/09/06 07:44:17;;;;;;;8.60;5.30;;;;;;;20.84;nan;101269.19;5006788;28;20087;-68
2023/09/06 07:46:48;;;;;;;6.75;4.60;;;;;;;20.92;nan;101271.28;5005830;28;20499;-68
2023/09/06 07:49:14;;;;;;;6.28;4.63;;;;;;;20.90;nan;101250.16;5005573;28;20060;-68
2023/09/06 07:51:39;;;;;;;7.65;4.95;;;;;;;21.10;nan;101269.91;5007132;28;20041;-69
2023/09/06 07:54:05;;;;;;;8.35;4.63;;;;;;;21.11;nan;101271.50;5006375;28;20076;-68
2023/09/06 07:56:30;;;;;;;6.95;4.70;;;;;;;21.09;nan;101265.59;5004888;28;20026;-69
2023/09/06 07:58:55;;;;;;;6.97;4.63;;;;;;;21.06;nan;101255.44;5006726;28;20038;-69
2023/09/06 08:01:21;;;;;;;12.50;5.03;;;;;;;21.17;nan;101262.38;5007538;28;20034;-69
2023/09/06 08:03:46;;;;;;;7.78;5.22;;;;;;;21.26;nan;101279.44;5005333;28;20028;-69
2023/09/06 08:06:12;;;;;;;10.80;5.15;;;;;;;21.13;nan;101261.31;5006756;28;20045;-70
2023/09/06 08:08:37;;;;;;;11.63;4.95;;;;;;;21.15;nan;101272.56;5006470;28;20741;-69
2023/09/06 08:11:04;;;;;;;5.63;4.93;;;;;;;21.21;nan;101272.25;5002908;28;20033;-69
2023/09/06 08:13:29;;;;;;;7.30;4.40;;;;;;;21.21;nan;101269.59;5003058;28;20061;-71
2023/09/06 08:15:54;;;;;;;7.22;4.70;;;;;;;21.30;nan;101277.03;5003561;28;20084;-71
2023/09/06 08:18:20;;;;;;;7.53;4.88;;;;;;;21.41;nan;101275.94;5007305;28;20113;-68
2023/09/06 08:20:45;;;;;;;10.27;4.60;;;;;;;21.45;nan;101279.66;5005781;28;20060;-68
2023/09/06 08:23:11;;;;;;;9.85;4.70;;;;;;;21.64;nan;101282.50;5002225;28;20425;-69
2023/09/06 08:25:36;;;;;;;6.88;4.30;;;;;;;21.78;nan;101272.75;5006931;28;20056;-68
2023/09/06 08:28:01;;;;;;;6.20;4.13;;;;;;;21.81;nan;101266.84;5006469;28;20488;-70
2023/09/06 08:30:27;;;;;;;8.38;4.28;;;;;;;21.93;nan;101266.47;5007278;28;20041;-71
2023/09/06 08:32:52;;;;;;;9.15;4.65;;;;;;;22.04;nan;101269.88;5002342;28;20483;-71
2023/09/06 08:35:18;;;;;;;8.65;4.30;;;;;;;22.03;nan;101258.38;5006317;28;20431;-71
2023/09/06 08:37:45;;;;;;;6.13;4.25;;;;;;;22.18;nan;101268.16;5004442;28;20512;-71
2023/09/06 08:40:11;;;;;;;10.48;4.30;;;;;;;22.28;nan;101273.47;5007006;28;20479;-71
2023/09/06 08:42:38;;;;;;;6.07;3.83;;;;;;;22.27;nan;101268.41;5003024;28;20026;-71
2023/09/06 08:45:07;;;;;;;5.50;4.00;;;;;;;22.41;nan;101276.56;5006786;28;20483;-71
2023/09/06 08:47:33;;;;;;;7.20;4.80;;;;;;;22.45;nan;101266.88;5001844;28;20036;-71
2023/09/06 08:49:59;;;;;;;8.32;3.90;;;;;;;22.48;nan;101266.31;5002784;28;20038;-72
2023/09/06 08:52:25;;;;;;;7.82;4.45;;;;;;;22.54;nan;101261.69;5006032;28;20464;-73
2023/09/06 08:54:51;;;;;;;7.10;4.32;;;;;;;22.53;nan;101244.81;5008252;28;20103;-71
2023/09/06 08:57:21;;;;;;;8.65;4.10;;;;;;;22.69;nan;101270.38;5007812;28;20030;-71
2023/09/06 08:59:47;;;;;;;6.85;3.20;;;;;;;22.71;nan;101267.41;5009237;28;20331;-68
2023/09/06 09:02:14;;;;;;;7.97;3.67;;;;;;;22.72;nan;101277.88;5007190;28;20029;-71
2023/09/06 09:04:41;;;;;;;7.95;3.75;;;;;;;22.78;nan;101277.81;5009803;28;20033;-71
2023/09/06 09:07:08;;;;;;;7.53;4.13;;;;;;;22.81;nan;101277.25;5008769;28;20026;-70
2023/09/06 09:09:33;;;;;;;9.90;4.18;;;;;;;22.84;nan;101273.97;5022385;28;20030;-68
2023/09/06 09:11:59;;;;;;;5.35;3.55;;;;;;;22.89;nan;101277.44;5007457;28;20115;-71
2023/09/06 09:14:25;;;;;;;6.30;3.50;;;;;;;22.91;nan;101267.19;5009842;28;20033;-72
2023/09/06 09:16:58;;;;;;;3.80;3.17;;;;;;;23.02;nan;101278.63;5008546;28;20049;-71
2023/09/06 09:19:24;;;;;;;10.80;3.88;;;;;;;23.04;nan;101270.31;5007933;28;20026;-68
2023/09/06 09:21:50;;;;;;;10.05;3.85;;;;;;;23.06;nan;101252.00;5007984;28;20032;-71
2023/09/06 09:24:27;;;;;;;8.38;3.65;;;;;;;23.31;nan;101275.84;5005816;28;20101;-70
2023/09/06 09:26:53;;;;;;;5.05;3.53;;;;;;;23.43;nan;101278.13;5006910;28;20510;-71
2023/09/06 09:29:18;;;;;;;6.63;3.50;;;;;;;23.48;nan;101266.50;5008362;28;20038;-69
2023/09/06 09:31:44;;;;;;;5.45;3.75;;;;;;;23.55;nan;101269.63;5010333;28;20488;-69
2023/09/06 09:34:12;;;;;;;5.53;3.30;;;;;;;23.57;nan;101262.84;5010067;28;20021;-70
2023/09/06 09:36:38;;;;;;;4.85;3.30;;;;;;;23.61;nan;101268.47;5010794;28;20049;-69
2023/09/06 09:39:07;;;;;;;4.93;3.30;;;;;;;23.55;nan;101254.28;5009328;28;20038;-69
2023/09/06 09:41:32;;;;;;;4.10;3.38;;;;;;;23.72;nan;101269.09;5010142;28;20057;-69
2023/09/06 09:44:14;;;;;;;3.78;2.90;;;;;;;23.88;nan;101267.00;5008715;28;20195;-69
2023/09/06 09:46:44;;;;;;;3.90;2.85;;;;;;;23.94;nan;101255.06;5010420;28;20030;-69
2023/09/06 09:49:10;;;;;;;4.22;3.25;;;;;;;24.07;nan;101264.28;5009565;28;20036;-69
2023/09/06 09:51:37;;;;;;;4.55;3.17;;;;;;;24.09;nan;101246.75;5008480;28;20025;-69
2023/09/06 09:54:07;;;;;;;5.05;3.15;;;;;;;24.18;nan;101249.56;5008535;28;20022;-69
2023/09/06 09:56:33;;;;;;;7.05;3.83;;;;;;;24.26;nan;101261.56;5009227;28;20033;-69
2023/09/06 09:59:03;;;;;;;6.88;3.50;;;;;;;24.29;nan;101252.88;5009895;28;20034;-71
2023/09/06 10:01:31;;;;;;;4.93;3.30;;;;;;;24.37;nan;101246.78;5009432;28;20025;-70
2023/09/06 10:03:58;;;;;;;4.93;3.25;;;;;;;24.44;nan;101243.72;5008613;28;20037;-70
2023/09/06 10:06:26;;;;;;;5.40;3.30;;;;;;;24.60;nan;101242.38;5009596;28;20022;-69
2023/09/06 10:08:55;;;;;;;6.60;3.80;;;;;;;24.64;nan;101246.06;5008939;28;20026;-70
2023/09/06 10:11:21;;;;;;;6.07;3.10;;;;;;;24.72;nan;101236.50;5007856;28;20738;-71
2023/09/06 10:13:47;;;;;;;6.60;3.03;;;;;;;24.75;nan;101228.59;5008761;28;20061;-69
2023/09/06 10:16:13;;;;;;;4.95;3.25;;;;;;;24.91;nan;101237.16;5008848;28;20028;-69
2023/09/06 10:18:39;;;;;;;5.10;3.30;;;;;;;24.98;nan;101242.94;5008808;28;20053;-70
2023/09/06 10:21:06;;;;;;;4.97;3.25;;;;;;;24.89;nan;101222.41;5008536;28;20527;-69
2023/09/06 10:23:40;;;;;;;6.25;3.47;;;;;;;24.97;nan;101237.84;5008307;28;20471;-69
2023/09/06 10:26:06;;;;;;;6.38;3.28;;;;;;;24.94;nan;101241.94;5006667;28;20036;-69
2023/09/06 10:28:32;;;;;;;4.57;3.25;;;;;;;24.77;nan;101229.09;5010064;28;20129;-69
2023/09/06 10:31:07;;;;;;;5.07;3.50;;;;;;;24.94;nan;101244.66;5006809;28;20037;-68
2023/09/06 10:33:35;;;;;;;6.88;3.17;;;;;;;25.02;nan;101240.44;5007378;28;20033;-69
2023/09/06 10:36:12;;;;;;;9.00;3.57;;;;;;;24.96;nan;101233.56;5008270;28;20049;-66
2023/09/06 10:38:53;;;;;;;4.80;3.50;;;;;;;25.04;nan;101240.94;5008514;28;20274;-67
2023/09/06 10:41:20;;;;;;;7.18;3.53;;;;;;;24.95;nan;101224.69;5008580;28;20029;-69
2023/09/06 10:43:55;;;;;;;9.80;3.60;;;;;;;25.13;nan;101241.81;5008189;28;20048;-69
2023/09/06 10:46:26;;;;;;;5.60;3.42;;;;;;;25.24;nan;101242.44;5009183;28;20425;-67
2023/09/06 10:49:22;;;;;;;5.50;3.78;;;;;;;25.35;nan;101238.41;4998051;28;20030;-69
2023/09/06 10:52:08;;;;;;;5.97;3.20;;;;;;;25.41;nan;101236.41;5007923;28;20440;-69
2023/09/06 10:54:40;;;;;;;4.82;3.55;;;;;;;25.52;nan;101228.88;5006719;28;20041;-69
2023/09/06 10:57:07;;;;;;;4.57;3.38;;;;;;;25.60;nan;101230.84;5006742;28;20592;-70
2023/09/06 10:59:37;;;;;;;6.40;3.47;;;;;;;25.66;nan;101224.22;5005707;28;20464;-69
2023/09/06 11:02:16;;;;;;;5.65;3.50;;;;;;;25.76;nan;101232.03;5004454;28;20527;-69
2023/09/06 11:04:43;;;;;;;4.82;3.45;;;;;;;25.79;nan;101222.56;5003403;28;20037;-69
2023/09/06 11:07:11;;;;;;;6.20;3.47;;;;;;;25.84;nan;101233.22;5005070;28;20088;-68
2023/09/06 11:09:45;;;;;;;4.40;3.40;;;;;;;25.78;nan;101224.44;5006371;28;20966;-69
2023/09/06 11:12:14;;;;;;;6.15;3.42;;;;;;;25.79;nan;101209.09;5006865;28;20125;-69
2023/09/06 11:14:46;;;;;;;;;;;;;;;25.94;nan;101210.63;4981449;28;20031;-69
2023/09/06 11:17:22;;;;;;;6.63;3.85;;;;;;;26.09;nan;101213.72;5004772;28;19921;-68
2023/09/06 11:19:48;;;;;;;7.10;3.25;;;;;;;26.15;nan;101200.91;4986300;28;20041;-68
2023/09/06 11:22:14;;;;;;;6.53;3.72;;;;;;;26.29;nan;101200.78;5002775;28;20025;-74
2023/09/06 11:24:39;;;;;;;9.40;3.42;;;;;;;26.34;nan;101195.25;4986593;28;20112;-74
2023/09/06 11:27:38;;;;;;;7.75;3.92;;;;;;;26.34;nan;101200.66;5003271;28;20395;-74
2023/09/06 11:30:10;;;;;;;5.95;3.67;;;;;;;26.34;nan;101191.75;4948128;28;20046;-74
2023/09/06 11:32:37;;;;;;;5.32;3.40;;;;;;;26.23;nan;101146.13;4998309;28;20029;-74
2023/09/06 11:35:05;;;;;;;8.32;3.20;;;;;;;26.12;nan;101187.19;5000390;28;20034;-74
2023/09/06 11:37:31;;;;;;;4.47;3.05;;;;;;;26.16;nan;101188.19;5000088;28;20038;-70
2023/09/06 11:39:59;;;;;;;5.47;3.20;;;;;;;25.99;nan;101172.69;4986354;28;20464;-66